Time;durP1;ratioP1;P1;durP2;ratioP2;P2;SDS_P1;SDS_P2;PMS_P1;PMS_P2;Temp;Humidity;BMP_temperature;BMP_pressure;BME280_temperature;BME280_humidity;BME280_pressure;Samples;Min_cycle;Max_cycle;Signal;HPM_P1;HPM_P2
2023/07/22 00:01:32;;;;;;;2.50;2.40;;;;;;;22.65;78.14;96866.94;5043926;28;20156;-67
2023/07/22 00:03:59;;;;;;;2.75;2.65;;;;;;;22.66;78.26;96871.31;5043748;28;20049;-68
2023/07/22 00:06:26;;;;;;;2.83;2.72;;;;;;;22.84;78.81;96913.91;5043774;28;20103;-68
2023/07/22 00:08:53;;;;;;;2.90;2.80;;;;;;;22.94;79.40;96935.34;5057991;28;20052;-67
2023/07/22 00:11:20;;;;;;;2.25;2.25;;;;;;;22.27;79.84;96831.00;5067816;28;20142;-68
2023/07/22 00:13:47;;;;;;;2.47;2.38;;;;;;;22.52;79.68;96868.97;5066139;28;20537;-68
2023/07/22 00:16:13;;;;;;;2.47;2.38;;;;;;;22.27;79.76;96831.00;5066045;28;20684;-68
2023/07/22 00:18:41;;;;;;;2.53;2.42;;;;;;;22.88;79.51;96908.91;5067922;28;20059;-68
2023/07/22 00:21:08;;;;;;;2.25;2.25;;;;;;;22.37;79.04;96835.53;5066446;28;20171;-67
2023/07/22 00:23:35;;;;;;;2.70;2.60;;;;;;;22.62;79.27;96896.84;5066139;28;20332;-67
2023/07/22 00:26:02;;;;;;;2.50;2.40;;;;;;;;;;5067354;28;20045;-67
2023/07/22 00:28:29;;;;;;;2.67;2.58;;;;;;;22.67;80.54;96932.25;5067653;28;20048;-69
2023/07/22 00:30:57;;;;;;;2.60;2.50;;;;;;;22.55;80.68;96904.78;5067014;28;20495;-67
2023/07/22 00:33:24;;;;;;;2.45;2.35;;;;;;;22.66;79.93;96899.56;5065892;28;20052;-68
2023/07/22 00:35:51;;;;;;;2.33;2.30;;;;;;;22.47;79.94;96867.47;5067095;28;20049;-68
2023/07/22 00:38:19;;;;;;;2.50;2.40;;;;;;;22.31;80.27;96845.03;5067529;28;20287;-68
2023/07/22 00:40:46;;;;;;;2.63;2.53;;;;;;;21.29;80.00;96687.50;5066952;28;20171;-68
2023/07/22 00:43:12;;;;;;;2.30;2.30;;;;;;;22.80;80.55;96930.16;5067249;28;20052;-68
2023/07/22 00:45:39;;;;;;;2.70;2.60;;;;;;;22.85;80.33;96918.31;5065123;28;20553;-68
2023/07/22 00:48:08;;;;;;;2.50;2.40;;;;;;;22.52;80.35;96878.25;5066022;28;20124;-69
2023/07/22 00:50:35;;;;;;;2.20;2.20;;;;;;;22.16;80.61;96813.63;5066796;28;20060;-68
2023/07/22 00:53:01;;;;;;;2.30;2.30;;;;;;;22.45;80.49;96853.03;5067188;28;20056;-68
2023/07/22 00:55:28;;;;;;;2.28;2.28;;;;;;;22.69;80.48;96887.38;5065270;28;20056;-67
2023/07/22 00:57:55;;;;;;;2.60;2.50;;;;;;;22.46;80.49;96872.34;5067581;28;20131;-67
2023/07/22 01:00:22;;;;;;;2.28;2.28;;;;;;;22.48;80.26;96873.94;5066422;28;20052;-68
2023/07/22 01:02:49;;;;;;;2.58;2.47;;;;;;;22.74;80.83;96924.31;5065768;28;20454;-67
2023/07/22 01:05:16;;;;;;;2.20;2.20;;;;;;;22.77;80.73;96933.91;5065111;28;20052;-67
2023/07/22 01:07:43;;;;;;;2.45;2.35;;;;;;;22.60;80.66;96904.22;5064025;28;20571;-68
2023/07/22 01:10:13;;;;;;;2.30;2.30;;;;;;;22.41;80.48;96875.72;5045977;28;20075;-68
2023/07/22 01:12:39;;;;;;;2.25;2.25;;;;;;;22.84;80.64;96947.81;5045168;28;20045;-68
2023/07/22 01:15:07;;;;;;;2.20;2.20;;;;;;;22.65;79.90;96909.28;5046446;28;20059;-67
2023/07/22 01:17:37;;;;;;;2.60;2.50;;;;;;;22.90;79.82;96952.44;5045504;28;20049;-67
2023/07/22 01:20:05;;;;;;;2.30;2.30;;;;;;;22.39;81.09;96928.22;5045828;28;20059;-67
2023/07/22 01:22:33;;;;;;;2.17;2.17;;;;;;;22.27;84.17;96972.13;5046748;28;20059;-68
2023/07/22 01:25:01;;;;;;;2.20;2.20;;;;;;;22.20;84.72;96948.97;5046367;28;20049;-68
2023/07/22 01:27:28;;;;;;;2.67;2.58;;;;;;;21.84;84.85;96861.81;5045559;28;20486;-68
2023/07/22 01:29:54;;;;;;;2.53;2.42;;;;;;;21.68;84.18;96810.31;5046420;28;20140;-67
2023/07/22 01:32:21;;;;;;;2.17;2.17;;;;;;;21.81;85.13;96859.09;5044852;28;20438;-68
2023/07/22 01:34:48;;;;;;;2.53;2.42;;;;;;;22.11;83.98;96896.03;5044530;28;20103;-67
2023/07/22 01:37:14;;;;;;;2.72;2.63;;;;;;;21.12;85.08;96784.56;5046321;28;20144;-69
2023/07/22 01:39:41;;;;;;;2.60;2.50;;;;;;;22.13;85.00;96899.19;5046200;28;20060;-67
2023/07/22 01:42:08;;;;;;;2.05;2.05;;;;;;;21.81;85.04;96859.91;5045680;28;20053;-67
2023/07/22 01:44:35;;;;;;;2.50;2.40;;;;;;;22.11;85.18;96907.31;5046180;28;20057;-68
2023/07/22 01:47:03;;;;;;;2.78;2.67;;;;;;;21.88;85.45;96887.88;5045927;28;20132;-68
2023/07/22 01:49:30;;;;;;;2.58;2.47;;;;;;;21.86;86.31;96873.41;5046319;28;20178;-67
2023/07/22 01:51:56;;;;;;;2.65;2.55;;;;;;;22.03;86.23;96905.97;5043826;28;20163;-67
2023/07/22 01:54:23;;;;;;;2.35;2.30;;;;;;;22.02;86.70;96907.19;5045961;28;20045;-68
2023/07/22 01:56:50;;;;;;;2.50;2.40;;;;;;;21.51;85.95;96806.78;5045763;28;20053;-67
2023/07/22 01:59:17;;;;;;;2.55;2.45;;;;;;;21.96;85.76;96883.59;5045951;28;20443;-68
2023/07/22 02:01:44;;;;;;;2.30;2.30;;;;;;;22.00;85.78;96884.28;5044268;28;20128;-68
2023/07/22 02:04:11;;;;;;;2.25;2.25;;;;;;;21.62;85.33;96840.31;5045523;28;20630;-69
2023/07/22 02:06:38;;;;;;;2.20;2.20;;;;;;;21.88;86.63;96930.19;5045716;28;20583;-67
2023/07/22 02:09:08;;;;;;;2.10;2.10;;;;;;;21.39;87.86;96883.63;5059295;28;20044;-67
2023/07/22 02:11:36;;;;;;;2.30;2.28;;;;;;;21.65;88.27;96941.72;5065118;28;20044;-67
2023/07/22 02:14:06;;;;;;;2.58;2.47;;;;;;;21.59;88.77;96937.81;5065657;28;20048;-68
2023/07/22 02:16:37;;;;;;;2.10;2.10;;;;;;;21.55;89.34;96933.53;5063725;28;20049;-67
2023/07/22 02:19:05;;;;;;;2.10;2.10;;;;;;;21.24;90.48;96909.84;5063712;28;20056;-68
2023/07/22 02:21:32;;;;;;;2.55;2.45;;;;;;;21.41;90.01;96915.00;5064998;28;20052;-68
2023/07/22 02:23:59;;;;;;;2.42;2.35;;;;;;;21.11;89.09;96856.25;5064201;28;20309;-68
2023/07/22 02:26:25;;;;;;;2.50;2.40;;;;;;;21.75;89.24;96951.91;5050259;28;20834;-67
2023/07/22 02:28:52;;;;;;;2.40;2.35;;;;;;;21.19;88.63;96846.38;5045529;28;20076;-67
2023/07/22 02:31:21;;;;;;;2.30;2.30;;;;;;;21.65;88.60;96905.06;5044004;28;20500;-67
2023/07/22 02:33:48;;;;;;;2.08;2.08;;;;;;;21.91;87.55;96920.81;5045308;28;20072;-68
2023/07/22 02:36:15;;;;;;;2.20;2.20;;;;;;;21.68;87.33;96872.34;5044691;28;20049;-69
2023/07/22 02:38:42;;;;;;;2.00;2.00;;;;;;;21.79;87.42;96884.94;5045138;28;20049;-67
2023/07/22 02:41:08;;;;;;;2.80;2.70;;;;;;;21.70;87.04;96870.66;5043164;28;20049;-68
2023/07/22 02:43:35;;;;;;;2.45;2.38;;;;;;;21.58;87.57;96873.44;5060210;28;20515;-67
2023/07/22 02:46:03;;;;;;;2.42;2.35;;;;;;;21.69;87.86;96894.44;5043171;28;20049;-66
2023/07/22 02:48:31;;;;;;;2.65;2.55;;;;;;;21.75;88.05;96901.16;5044879;28;20537;-66
2023/07/22 02:51:05;;;;;;;2.70;2.60;;;;;;;21.77;87.74;96895.84;5043827;28;20060;-68
2023/07/22 02:53:33;;;;;;;2.42;2.35;;;;;;;21.45;88.67;96859.28;5042700;28;20122;-67
2023/07/22 02:56:00;;;;;;;2.50;2.40;;;;;;;21.46;88.03;96846.81;5044829;28;20633;-66
2023/07/22 02:58:27;;;;;;;2.78;2.67;;;;;;;21.65;88.22;96876.06;5044555;28;20057;-68
2023/07/22 03:00:54;;;;;;;2.60;2.50;;;;;;;21.67;87.33;96860.25;5044288;28;20081;-66
2023/07/22 03:03:21;;;;;;;2.70;2.60;;;;;;;21.56;87.70;96859.00;5044462;28;20075;-66
2023/07/22 03:05:47;;;;;;;2.22;2.22;;;;;;;21.11;88.83;96832.91;5044476;28;20079;-66
2023/07/22 03:08:14;;;;;;;2.40;2.38;;;;;;;21.37;88.87;96891.72;5023338;28;20051;-66
2023/07/22 03:10:43;;;;;;;2.50;2.40;;;;;;;21.07;90.97;96906.25;5042594;28;20095;-66
2023/07/22 03:13:10;;;;;;;2.53;2.42;;;;;;;20.96;92.53;96897.28;5044426;28;20060;-67
2023/07/22 03:15:37;;;;;;;2.50;2.40;;;;;;;21.02;93.06;96912.44;5044269;28;20049;-68
2023/07/22 03:18:04;;;;;;;2.17;2.17;;;;;;;20.77;92.86;96864.38;5044624;28;20102;-66
2023/07/22 03:20:31;;;;;;;2.67;2.58;;;;;;;21.05;92.88;96896.66;5044123;28;20114;-66
2023/07/22 03:22:58;;;;;;;2.45;2.38;;;;;;;21.27;91.77;96925.84;5044710;28;20052;-66
2023/07/22 03:25:25;;;;;;;2.15;2.15;;;;;;;21.02;92.29;96909.63;5042618;28;20068;-66
2023/07/22 03:27:52;;;;;;;2.20;2.20;;;;;;;21.18;91.68;96906.78;5044322;28;20057;-68
2023/07/22 03:30:21;;;;;;;2.30;2.30;;;;;;;21.48;90.66;96920.41;5044154;28;20495;-67
2023/07/22 03:32:50;;;;;;;2.83;2.72;;;;;;;21.54;88.83;96896.09;5042201;28;20562;-65
2023/07/22 03:35:17;;;;;;;2.50;2.40;;;;;;;21.60;88.90;96888.69;5042634;28;20080;-66
2023/07/22 03:37:45;;;;;;;2.63;2.53;;;;;;;21.93;87.46;96912.72;5043749;28;20068;-66
2023/07/22 03:40:19;;;;;;;2.60;2.50;;;;;;;21.42;87.23;96823.56;5043861;28;20055;-67
2023/07/22 03:42:50;;;;;;;2.30;2.30;;;;;;;21.66;85.97;96836.13;5042324;28;20430;-67
2023/07/22 03:45:18;;;;;;;2.75;2.65;;;;;;;21.94;86.57;96903.00;5043865;28;20089;-67
2023/07/22 03:47:46;;;;;;;2.30;2.30;;;;;;;21.64;86.41;96849.88;5043893;28;20044;-67
2023/07/22 03:50:13;;;;;;;2.60;2.50;;;;;;;21.95;85.70;96887.66;5042564;28;20059;-68
2023/07/22 03:52:39;;;;;;;2.25;2.25;;;;;;;22.41;84.36;96909.59;5043424;28;20057;-67
2023/07/22 03:55:06;;;;;;;2.58;2.47;;;;;;;22.45;83.04;96887.69;5043680;28;20051;-67
2023/07/22 03:57:33;;;;;;;2.70;2.60;;;;;;;22.02;82.67;96808.44;5043884;28;20044;-66
2023/07/22 04:00:04;;;;;;;2.22;2.22;;;;;;;22.77;82.50;96914.94;5043804;28;20057;-67
2023/07/22 04:02:30;;;;;;;2.50;2.40;;;;;;;22.81;82.98;96926.88;5044158;28;20052;-67
2023/07/22 04:04:57;;;;;;;2.60;2.50;;;;;;;22.72;82.18;96886.44;5044033;28;20053;-67
2023/07/22 04:07:24;;;;;;;2.50;2.40;;;;;;;22.91;81.28;96919.31;5044118;28;20060;-67
2023/07/22 04:09:51;;;;;;;2.85;2.75;;;;;;;22.81;82.29;96909.16;5026000;28;20054;-67
2023/07/22 04:12:17;;;;;;;2.60;2.50;;;;;;;22.80;80.97;96865.19;5024057;28;20061;-67
2023/07/22 04:14:44;;;;;;;2.63;2.53;;;;;;;22.55;81.61;96822.88;5022032;28;20064;-67
2023/07/22 04:17:11;;;;;;;2.60;2.50;;;;;;;23.20;81.56;96914.28;5021951;28;20061;-67
2023/07/22 04:19:38;;;;;;;3.05;2.95;;;;;;;23.13;81.19;96892.69;5023205;28;20133;-67
2023/07/22 04:22:04;;;;;;;2.60;2.50;;;;;;;23.41;80.54;96919.22;5023457;28;20045;-68
2023/07/22 04:24:31;;;;;;;2.70;2.60;;;;;;;22.19;80.56;96739.34;5023338;28;20061;-67
2023/07/22 04:26:59;;;;;;;2.60;2.50;;;;;;;22.81;80.52;96824.44;5023164;28;20140;-66
2023/07/22 04:29:25;;;;;;;2.55;2.45;;;;;;;22.99;80.21;96835.88;5023423;28;20061;-67
2023/07/22 04:32:00;;;;;;;2.67;2.58;;;;;;;23.43;79.75;96894.09;5023341;28;20499;-67
2023/07/22 04:34:31;;;;;;;3.00;2.90;;;;;;;23.60;78.89;96898.34;5023157;28;20535;-68
2023/07/22 04:36:57;;;;;;;2.55;2.45;;;;;;;23.77;77.40;96896.88;5023660;28;20049;-68
2023/07/22 04:39:24;;;;;;;2.80;2.70;;;;;;;24.09;77.09;96929.69;5023582;28;20053;-68
2023/07/22 04:41:51;;;;;;;2.63;2.53;;;;;;;23.79;77.82;96911.34;5022962;28;20233;-67
2023/07/22 04:44:19;;;;;;;2.97;2.88;;;;;;;24.12;77.46;96935.22;5021936;28;20057;-67
2023/07/22 04:46:46;;;;;;;3.25;3.15;;;;;;;24.11;77.41;96944.13;5023760;28;20053;-68
2023/07/22 04:49:17;;;;;;;2.90;2.80;;;;;;;24.13;77.53;96931.13;5022885;28;20045;-68
2023/07/22 04:51:47;;;;;;;2.90;2.80;;;;;;;23.72;78.15;96912.44;5023186;28;20064;-68
2023/07/22 04:54:14;;;;;;;2.80;2.70;;;;;;;23.43;78.37;96843.19;5024409;28;20558;-68
2023/07/22 04:56:42;;;;;;;2.75;2.65;;;;;;;24.05;77.77;96935.47;5025155;28;20532;-68
2023/07/22 04:59:10;;;;;;;2.65;2.55;;;;;;;23.88;77.59;96902.94;5024911;28;20099;-67
2023/07/22 05:01:37;;;;;;;2.85;2.75;;;;;;;23.82;76.73;96853.88;5026959;28;20063;-68
2023/07/22 05:04:04;;;;;;;2.75;2.65;;;;;;;24.25;76.55;96870.78;5036205;28;20049;-67
2023/07/22 05:06:32;;;;;;;3.10;3.00;;;;;;;24.51;76.44;96925.97;5045967;28;20110;-67
2023/07/22 05:08:59;;;;;;;3.10;3.00;;;;;;;24.43;75.73;96893.53;5045205;28;20082;-67
2023/07/22 05:11:26;;;;;;;3.00;2.90;;;;;;;24.82;75.05;96898.44;5045095;28;20080;-67
2023/07/22 05:13:53;;;;;;;3.10;3.00;;;;;;;25.21;74.52;96930.81;5046738;28;20049;-68
2023/07/22 05:16:21;;;;;;;3.20;3.10;;;;;;;25.06;73.78;96890.94;5045157;28;20048;-68
2023/07/22 05:18:48;;;;;;;3.38;3.28;;;;;;;25.48;74.14;96927.25;5045423;28;20454;-69
2023/07/22 05:21:15;;;;;;;3.60;3.50;;;;;;;25.64;73.19;96902.19;5044841;28;20478;-67
2023/07/22 05:23:41;;;;;;;3.28;3.17;;;;;;;25.60;72.02;96872.41;5046523;28;20500;-67
2023/07/22 05:26:08;;;;;;;3.33;3.22;;;;;;;26.02;71.11;96919.53;5046106;28;20060;-68
2023/07/22 05:28:35;;;;;;;3.38;3.28;;;;;;;26.18;70.17;96912.72;5046105;28;20056;-67
2023/07/22 05:31:02;;;;;;;3.63;3.53;;;;;;;26.26;69.89;96919.66;5045358;28;20589;-67
2023/07/22 05:33:28;;;;;;;3.38;3.28;;;;;;;26.29;69.24;96876.09;5042294;28;20049;-68
2023/07/22 05:35:55;;;;;;;3.50;3.40;;;;;;;26.58;67.00;96918.94;5043993;28;20055;-72
2023/07/22 05:38:22;;;;;;;3.83;3.72;;;;;;;26.06;66.71;96802.97;5045011;28;20041;-69
2023/07/22 05:40:49;;;;;;;3.60;3.50;;;;;;;25.55;65.93;96719.81;5026113;28;20072;-66
2023/07/22 05:43:15;;;;;;;3.92;3.83;;;;;;;27.06;66.11;96902.78;5026339;28;20045;-65
2023/07/22 05:45:42;;;;;;;3.85;3.75;;;;;;;27.03;65.49;96881.75;5027260;28;20092;-75
2023/07/22 05:48:09;;;;;;;3.97;3.88;;;;;;;27.50;64.59;96904.56;5045989;28;20344;-66
2023/07/22 05:50:36;;;;;;;3.95;3.85;;;;;;;26.53;64.21;96777.50;5042600;28;20049;-67
2023/07/22 05:53:03;;;;;;;3.90;3.80;;;;;;;27.50;64.22;96909.47;5040537;28;20061;-72
2023/07/22 05:55:29;;;;;;;3.90;3.80;;;;;;;26.90;65.93;96858.50;5038831;28;20137;-71
2023/07/22 05:57:56;;;;;;;3.53;3.42;;;;;;;27.26;65.07;96860.28;5045950;28;20049;-63
2023/07/22 06:00:23;;;;;;;3.83;3.72;;;;;;;27.89;63.27;96896.81;5044267;28;20063;-68
2023/07/22 06:02:50;;;;;;;4.10;4.00;;;;;;;27.90;62.22;96865.00;5045095;28;20126;-65
2023/07/22 06:05:16;;;;;;;3.72;3.63;;;;;;;28.20;60.42;96888.59;5043043;28;20044;-71
2023/07/22 06:07:43;;;;;;;4.38;4.28;;;;;;;28.03;59.97;96874.06;5045722;28;20437;-67
2023/07/22 06:10:11;;;;;;;4.13;4.03;;;;;;;28.03;62.01;96891.16;5042206;28;20056;-65
2023/07/22 06:12:38;;;;;;;4.07;3.97;;;;;;;28.13;59.17;96895.50;5040460;28;20136;-68
2023/07/22 06:15:06;;;;;;;4.25;4.15;;;;;;;27.77;59.32;96810.38;5034099;28;20552;-69
2023/07/22 06:17:33;;;;;;;4.20;4.10;;;;;;;28.50;59.00;96912.22;5045903;28;20049;-68
2023/07/22 06:20:01;;;;;;;3.90;3.80;;;;;;;28.90;58.55;96909.50;5044704;28;20454;-71
2023/07/22 06:22:27;;;;;;;4.00;3.90;;;;;;;28.62;59.17;96913.97;5041845;28;20122;-72
2023/07/22 06:24:54;;;;;;;3.78;3.67;;;;;;;28.22;58.89;96831.16;5045247;28;20055;-65
2023/07/22 06:27:21;;;;;;;4.40;4.30;;;;;;;28.04;59.66;96867.09;5044405;28;20053;-73
2023/07/22 06:29:48;;;;;;;4.43;4.32;;;;;;;28.73;58.90;96914.16;5045278;28;20059;-64
2023/07/22 06:32:15;;;;;;;3.95;3.85;;;;;;;27.21;57.68;96674.00;5044443;28;20076;-67
2023/07/22 06:34:42;;;;;;;4.50;4.40;;;;;;;29.29;57.87;96899.50;5039865;28;20094;-65
2023/07/22 06:37:08;;;;;;;4.22;4.13;;;;;;;29.22;57.44;96903.53;5041582;28;20048;-67
2023/07/22 06:39:35;;;;;;;4.45;4.35;;;;;;;29.54;56.47;96915.91;5043661;28;20056;-69
2023/07/22 06:42:02;;;;;;;4.35;4.25;;;;;;;28.96;56.73;96830.53;5044848;28;20061;-66
2023/07/22 06:44:29;;;;;;;4.50;4.40;;;;;;;28.89;56.79;96814.59;5043293;28;20045;-65
2023/07/22 06:46:56;;;;;;;4.97;4.88;;;;;;;29.52;55.83;96892.78;5041554;28;20098;-70
2023/07/22 06:49:24;;;;;;;4.53;4.43;;;;;;;29.33;56.31;96817.28;5043393;28;20052;-69
2023/07/22 06:51:51;;;;;;;4.72;4.63;;;;;;;30.09;55.63;96899.47;5043435;28;20071;-70
2023/07/22 06:54:18;;;;;;;4.75;4.65;;;;;;;29.97;53.81;96840.59;5042084;28;20135;-65
2023/07/22 06:56:45;;;;;;;4.80;4.70;;;;;;;30.46;53.56;96900.38;5041970;28;20049;-65
2023/07/22 06:59:11;;;;;;;4.75;4.65;;;;;;;29.74;54.04;96815.97;5042172;28;20519;-69
2023/07/22 07:01:38;;;;;;;4.78;4.68;;;;;;;30.53;53.08;96905.63;5043979;28;20052;-67
2023/07/22 07:04:05;;;;;;;4.65;4.55;;;;;;;30.55;52.79;96897.34;5044120;28;20130;-69
2023/07/22 07:06:32;;;;;;;4.95;4.85;;;;;;;30.43;53.21;96872.78;5042346;28;20106;-64
2023/07/22 07:09:02;;;;;;;5.03;4.93;;;;;;;30.88;52.76;96926.25;5042801;28;20565;-68
2023/07/22 07:11:29;;;;;;;4.90;4.80;;;;;;;31.19;51.46;96916.06;5036916;28;20037;-66
2023/07/22 07:13:56;;;;;;;4.90;4.80;;;;;;;31.04;50.96;96875.38;5032041;28;20041;-64
2023/07/22 07:16:26;;;;;;;4.75;4.65;;;;;;;31.43;51.35;96916.47;5042671;28;20037;-76
2023/07/22 07:18:54;;;;;;;5.03;4.93;;;;;;;31.48;50.91;96898.56;5038049;28;20045;-70
2023/07/22 07:21:22;;;;;;;5.13;5.03;;;;;;;31.43;49.63;96882.13;5032786;28;20064;-69
2023/07/22 07:23:49;;;;;;;5.20;5.10;;;;;;;31.64;49.57;96906.44;5041735;28;20052;-62
2023/07/22 07:26:15;;;;;;;5.03;4.93;;;;;;;31.79;49.70;96912.78;5042950;28;20513;-64
2023/07/22 07:28:42;;;;;;;4.90;4.80;;;;;;;31.90;49.37;96915.72;5026601;28;20136;-63
2023/07/22 07:31:09;;;;;;;5.00;4.90;;;;;;;31.92;48.73;96881.56;5025726;28;20442;-71
2023/07/22 07:33:36;;;;;;;5.40;5.30;;;;;;;32.13;48.46;96917.34;5038765;28;20064;-63
2023/07/22 07:36:03;;;;;;;5.03;4.93;;;;;;;31.79;48.79;96826.81;5038879;28;20499;-71
2023/07/22 07:38:30;;;;;;;4.70;4.60;;;;;;;31.72;48.64;96896.06;5029767;28;20060;-73
2023/07/22 07:41:03;;;;;;;4.55;4.45;;;;;;;32.24;48.93;96921.03;5043442;28;20053;-70
2023/07/22 07:43:30;;;;;;;4.80;4.70;;;;;;;32.39;48.54;96915.06;5041989;28;20072;-62
2023/07/22 07:46:21;;;;;;;4.65;4.55;;;;;;;32.28;48.08;96920.75;5039888;28;20053;-71
2023/07/22 07:48:52;;;;;;;4.75;4.65;;;;;;;32.22;48.01;96917.09;5038400;28;20510;-74
2023/07/22 07:51:20;;;;;;;4.95;4.85;;;;;;;32.15;48.14;96888.94;5041413;28;20070;-70
2023/07/22 07:53:48;;;;;;;4.80;4.70;;;;;;;32.76;47.20;96909.09;5041524;28;20061;-61
2023/07/22 07:56:16;;;;;;;5.10;5.00;;;;;;;32.67;47.51;96861.38;5041287;28;20053;-72
2023/07/22 07:58:44;;;;;;;5.13;5.03;;;;;;;33.05;46.24;96892.19;5042473;28;20049;-67
2023/07/22 08:01:11;;;;;;;4.90;4.80;;;;;;;32.63;45.70;96832.16;5040692;28;20617;-73
2023/07/22 08:03:40;;;;;;;5.13;5.03;;;;;;;32.70;46.29;96836.59;5039979;28;20045;-67
2023/07/22 08:06:07;;;;;;;4.75;4.65;;;;;;;33.15;45.64;96890.56;5025067;28;20049;-68
2023/07/22 08:08:35;;;;;;;4.47;4.38;;;;;;;33.05;45.38;96857.72;5034953;28;20053;-64
2023/07/22 08:11:06;;;;;;;4.72;4.63;;;;;;;33.11;45.44;96867.09;5035430;28;20124;-74
2023/07/22 08:13:34;;;;;;;4.72;4.63;;;;;;;33.33;45.61;96890.03;5040404;28;20114;-72
2023/07/22 08:16:03;;;;;;;5.18;5.07;;;;;;;33.17;44.70;96830.53;5042284;28;20048;-69
2023/07/22 08:18:34;;;;;;;5.03;4.93;;;;;;;33.36;45.13;96886.09;5040855;28;20060;-71
2023/07/22 08:21:02;;;;;;;4.63;4.53;;;;;;;32.35;46.55;96885.84;5030777;28;20526;-65
2023/07/22 08:23:30;;;;;;;4.93;4.82;;;;;;;32.65;46.53;96889.00;5034901;28;20432;-64
2023/07/22 08:25:58;;;;;;;4.63;4.53;;;;;;;32.32;46.95;96884.00;5040729;28;20049;-64
2023/07/22 08:28:24;;;;;;;4.57;4.47;;;;;;;31.76;47.75;96817.16;5041130;28;20057;-65
2023/07/22 08:30:55;;;;;;;4.80;4.70;;;;;;;32.93;47.27;96879.13;5046461;28;20051;-68
2023/07/22 08:33:23;;;;;;;4.25;4.15;;;;;;;32.93;45.13;96827.44;5045750;28;20056;-68
2023/07/22 08:36:06;;;;;;;5.20;5.10;;;;;;;33.10;45.36;96813.84;5047012;28;20055;-76
2023/07/22 08:38:33;;;;;;;4.68;4.57;;;;;;;33.36;44.72;96831.53;5044990;28;20045;-74
2023/07/22 08:41:00;;;;;;;5.10;5.00;;;;;;;33.56;44.61;96805.34;5046381;28;20052;-68
2023/07/22 08:43:29;;;;;;;5.00;4.90;;;;;;;34.20;43.24;96863.56;5045812;28;20056;-61
2023/07/22 08:46:00;;;;;;;5.05;4.95;;;;;;;33.94;42.37;96799.94;5046526;28;20072;-69
2023/07/22 08:48:32;;;;;;;5.35;5.25;;;;;;;34.38;42.41;96842.78;5044918;28;20106;-66
2023/07/22 08:51:18;;;;;;;5.82;5.63;;;;;;;34.53;42.32;96840.31;5043940;28;20594;-69
2023/07/22 08:53:46;;;;;;;4.97;4.88;;;;;;;34.56;41.96;96798.97;5046548;28;20160;-70
2023/07/22 08:56:26;;;;;;;4.97;4.88;;;;;;;35.07;41.06;96864.22;5045845;28;20537;-67
2023/07/22 08:58:55;;;;;;;5.22;5.13;;;;;;;34.91;40.90;96819.88;5044332;28;20245;-67
2023/07/22 09:01:22;;;;;;;5.95;5.75;;;;;;;35.09;40.65;96847.94;5044502;28;20056;-65
2023/07/22 09:03:53;;;;;;;5.85;5.65;;;;;;;34.79;41.24;96829.13;5043824;28;20111;-63
2023/07/22 09:06:19;;;;;;;5.10;5.00;;;;;;;34.61;40.98;96784.53;5045734;28;20055;-65
2023/07/22 09:08:47;;;;;;;5.45;5.35;;;;;;;34.09;40.81;96691.09;5045216;28;20048;-67
2023/07/22 09:11:15;;;;;;;5.32;5.22;;;;;;;34.46;40.87;96766.09;5032501;28;20057;-69
2023/07/22 09:13:44;;;;;;;5.22;5.13;;;;;;;34.91;41.08;96830.59;5041174;28;20159;-69
2023/07/22 09:16:12;;;;;;;5.53;5.38;;;;;;;34.25;41.00;96741.94;5043880;28;20059;-68
2023/07/22 09:18:39;;;;;;;5.53;5.38;;;;;;;34.88;41.66;96823.03;5043102;28;20045;-70
2023/07/22 09:21:06;;;;;;;4.82;4.72;;;;;;;35.31;41.78;96835.41;5043465;28;20052;-64
2023/07/22 09:23:34;;;;;;;5.13;5.03;;;;;;;35.18;40.83;96769.03;5043042;28;20053;-62
2023/07/22 09:26:11;;;;;;;5.90;5.70;;;;;;;35.54;40.78;96825.19;5044169;28;20053;-63
2023/07/22 09:28:57;;;;;;;5.10;5.00;;;;;;;35.26;40.46;96781.50;5038199;28;20052;-67
2023/07/22 09:31:26;;;;;;;5.25;5.15;;;;;;;35.17;40.69;96739.44;5045681;28;20106;-68
2023/07/22 09:33:56;;;;;;;5.72;5.53;;;;;;;34.98;40.40;96741.50;5045642;28;20064;-66
2023/07/22 09:36:22;;;;;;;5.40;5.30;;;;;;;35.55;41.22;96809.47;5038702;28;20053;-70
2023/07/22 09:39:02;;;;;;;4.95;4.85;;;;;;;35.72;41.07;96807.16;5044752;28;20064;-71
2023/07/22 09:41:30;;;;;;;5.65;5.45;;;;;;;35.70;40.39;96775.19;5044696;28;20049;-68
2023/07/22 09:43:57;;;;;;;6.22;6.03;;;;;;;36.30;39.58;96799.53;5043996;28;20228;-64
2023/07/22 09:46:31;;;;;;;5.07;4.97;;;;;;;36.25;40.38;96790.91;5043273;28;20045;-62
2023/07/22 09:49:03;;;;;;;5.80;5.60;;;;;;;36.49;39.89;96794.50;5044026;28;20037;-68
2023/07/22 09:51:34;;;;;;;5.10;5.00;;;;;;;36.53;39.60;96790.50;5045214;28;20057;-64
2023/07/22 09:54:08;;;;;;;5.68;5.47;;;;;;;36.71;39.70;96781.78;5043758;28;20057;-64
2023/07/22 09:56:48;;;;;;;5.00;4.90;;;;;;;36.37;39.17;96712.28;5040370;28;20588;-61
2023/07/22 09:59:18;;;;;;;6.00;5.80;;;;;;;36.87;39.30;96765.50;5045254;28;20053;-64
2023/07/22 10:01:47;;;;;;;6.30;6.10;;;;;;;36.84;39.53;96760.84;5035697;28;20052;-61
2023/07/22 10:04:16;;;;;;;5.65;5.45;;;;;;;37.08;39.73;96780.88;5055464;28;20052;-68
2023/07/22 10:06:43;;;;;;;5.75;5.55;;;;;;;37.16;39.71;96764.41;5042656;28;20048;-71
2023/07/22 10:09:12;;;;;;;5.82;5.63;;;;;;;37.33;38.73;96767.78;5038730;28;20056;-62
2023/07/22 10:11:39;;;;;;;6.13;5.93;;;;;;;36.25;40.23;96762.06;5031214;28;20067;-64
2023/07/22 10:14:07;;;;;;;5.50;5.38;;;;;;;35.77;39.92;96613.13;5044598;28;20080;-65
2023/07/22 10:16:35;;;;;;;5.00;4.90;;;;;;;36.26;39.78;96741.31;5042533;28;20075;-66
2023/07/22 10:19:04;;;;;;;5.95;5.75;;;;;;;36.34;40.84;96733.59;5043872;28;20053;-61
2023/07/22 10:21:31;;;;;;;5.85;5.65;;;;;;;36.97;39.61;96740.63;5044545;28;20400;-67
2023/07/22 10:24:01;;;;;;;5.15;5.05;;;;;;;36.14;38.84;96610.13;5043768;28;20111;-62
2023/07/22 10:26:28;;;;;;;4.93;4.82;;;;;;;36.94;39.64;96753.31;5044173;28;20428;-62
2023/07/22 10:29:13;;;;;;;5.03;4.93;;;;;;;36.92;40.08;96744.41;5043372;28;20056;-72
2023/07/22 10:31:40;;;;;;;5.50;5.38;;;;;;;36.70;40.58;96739.81;5045382;28;20136;-68
2023/07/22 10:34:07;;;;;;;5.50;5.35;;;;;;;35.14;41.88;96693.69;5043807;28;20049;-65
2023/07/22 10:36:36;;;;;;;4.72;4.63;;;;;;;35.65;41.29;96715.50;5041922;28;20055;-63
2023/07/22 10:39:03;;;;;;;4.80;4.70;;;;;;;35.92;41.32;96725.88;5024464;28;20348;-62
2023/07/22 10:41:31;;;;;;;5.93;5.72;;;;;;;36.30;41.16;96736.03;5039299;28;20520;-67
2023/07/22 10:43:59;;;;;;;5.50;5.38;;;;;;;35.99;41.37;96731.03;5043799;28;20140;-66
2023/07/22 10:46:40;;;;;;;5.72;5.53;;;;;;;36.49;40.60;96736.75;5032146;28;20076;-66
2023/07/22 10:49:15;;;;;;;5.80;5.60;;;;;;;36.61;40.19;96730.78;5030238;28;20057;-66
2023/07/22 10:51:50;;;;;;;4.95;4.85;;;;;;;36.71;40.05;96734.81;5028618;28;20057;-66
2023/07/22 10:54:36;;;;;;;5.93;5.72;;;;;;;36.75;39.66;96735.25;5041850;28;20432;-67
2023/07/22 10:57:22;;;;;;;5.40;5.30;;;;;;;36.83;39.81;96718.84;5025225;28;20432;-67
2023/07/22 10:59:52;;;;;;;6.32;6.13;;;;;;;35.99;40.19;96647.38;5024340;28;20060;-68
2023/07/22 11:02:26;;;;;;;5.55;5.40;;;;;;;36.66;39.67;96727.78;5024929;28;20057;-68
2023/07/22 11:04:57;;;;;;;5.75;5.55;;;;;;;36.73;39.79;96720.56;5024573;28;20071;-68
2023/07/22 11:07:47;;;;;;;5.15;5.05;;;;;;;36.27;39.82;96667.06;5024863;28;20512;-68
2023/07/22 11:10:18;;;;;;;5.53;5.43;;;;;;;36.09;40.27;96657.16;5024171;28;20118;-67
2023/07/22 11:12:46;;;;;;;5.15;5.05;;;;;;;35.99;39.60;96652.38;5023762;28;20508;-69
2023/07/22 11:15:16;;;;;;;5.60;5.45;;;;;;;36.70;39.22;96693.59;5024055;28;20037;-67
2023/07/22 11:17:43;;;;;;;5.57;5.40;;;;;;;37.04;35.54;96713.97;5024233;28;20085;-66
2023/07/22 11:20:10;;;;;;;6.20;6.00;;;;;;;37.41;35.34;96716.63;5023903;28;20049;-68
2023/07/22 11:22:40;;;;;;;5.03;4.93;;;;;;;37.72;34.95;96710.69;5039164;28;20139;-66
2023/07/22 11:25:08;;;;;;;6.28;6.07;;;;;;;37.86;34.21;96717.22;5023903;28;20150;-67
2023/07/22 11:27:34;;;;;;;5.55;5.38;;;;;;;37.71;33.59;96647.63;5022941;28;20050;-67
2023/07/22 11:30:03;;;;;;;6.22;6.03;;;;;;;38.57;31.72;96705.97;5024368;28;20045;-67
2023/07/22 11:32:32;;;;;;;6.15;5.95;;;;;;;38.27;31.93;96665.19;5024668;28;20056;-66
2023/07/22 11:34:59;;;;;;;6.10;5.90;;;;;;;38.49;32.58;96705.13;5023122;28;20158;-69
2023/07/22 11:37:27;;;;;;;5.32;5.22;;;;;;;38.41;32.56;96698.50;5023897;28;20053;-68
2023/07/22 11:40:00;;;;;;;5.72;5.53;;;;;;;38.24;32.57;96689.44;5024208;28;20053;-68